logo
Search for airport 
image banner adimage banner adimage banner ad
image banner ad

YMBG - Marlborough

Located in , Australia

ICAO - , IATA -

Data provided by Airmate  

General information

Coordinates: S22°48'53" E149°53'17"
Elevation is 287 feet MSL.
 
View others Airports in Queensland

Operational data

Special qualification required
Current time UTC:
Current local time:
Weather at : - ( 0 km )
METAR: ZMUB 171300Z 01003MPS 340V050 CAVOK 23/09 Q1009 NOSIG RMK QFE650.4 39
View NOTAMs / SUP AIP / TFR affecting this airport [VIEW]
Communications frequencies: [VIEW]

Runways:

Airport contact information

Address: Australia

Satellite view of YMBG